Terminal Aerodrome Forecast
Issued by NWS Knoxville/Tri Cities, TN

Home | Current Version | Previous Version | Text Only | Print | Product List | Glossary On
Versions: 1 2 3 4 5 6 7 8 9 10 11 12 13 14 15 16 17 18 19 20 21 22 23 24 25 26 27 28 29
000
FTUS44 KMRX 011126
TAFTYS
TAF
KTYS 011126Z 0112/0212 VRB03KT P6SM OVC100
     FM011800 06005KT P6SM BKN040
     FM012200 19012KT 4SM -RA OVC035
     FM020100 20012G20KT 3SM -RA OVC015
     FM020400 23015G30KT 2SM RA BKN007 OVC015
     FM020800 25012G25KT 5SM -RA SCT007 OVC020=

USA.gov is the U.S. government's official web portal to all federal, state and local government web resources and services.